Amethyst — UDTS — position and weather

sailwx.info

Track history (hours):
 
Tides and Currents Weather Stations Pressure Air Temp Water Temp Dewpoint Dewpoint Depression Visibility Wind Speed Wind Dir Waves Ship Positions

Amethyst

Last reported at 2017-Sep-24 13:57 UTC. Time now 2017-Sep-26 11:14 UTC.
Position N 45°30' E 036°45'.

Length 108 m; draft 2.6 m.

Type: Cargo ship. MMSI: 273445370.

Date/timePositionNaut miles runAvg speedWind from/ knotsBaromVisibWave heightAir tempDewpointWater temp
2017-Sep-24 13:57N 45°30' E 036°45'3 7.8
2017-Sep-24 13:30N 45°27' E 036°42'4 7.8
2017-Sep-24 13:00N 45°24' E 036°40'3 6.8
2017-Sep-24 12:30N 45°21' E 036°38'4 7.4
2017-Sep-24 12:00N 45°19' E 036°33'4 7.1
2017-Sep-24 11:30N 45°17' E 036°29'3 4.9
2017-Sep-24 10:59N 45°15' E 036°29'2 4.8
2017-Sep-24 10:30N 45°13' E 036°30'1 0.5
2017-Sep-24 08:22N 45°12' E 036°31'  
Track history (hours):
 
Tides and Currents Weather Stations Pressure Air Temp Water Temp Dewpoint Dewpoint Depression Visibility Wind Speed Wind Dir Waves Ship Positions

Amethyst

Last reported at 2017-Sep-24 13:57 UTC. Time now 2017-Sep-26 11:14 UTC.
Position N 45°30' E 036°45'.

Length 108 m; draft 2.6 m.

Type: Cargo ship. MMSI: 273445370.

Date/timePositionNaut miles runAvg speedWind from/ knotsBaromVisibWave heightAir tempDewpointWater temp
2017-Sep-24 13:57N 45°30' E 036°45'3 7.8
2017-Sep-24 13:30N 45°27' E 036°42'4 7.8
2017-Sep-24 13:00N 45°24' E 036°40'3 6.8
2017-Sep-24 12:30N 45°21' E 036°38'4 7.4
2017-Sep-24 12:00N 45°19' E 036°33'4 7.1
2017-Sep-24 11:30N 45°17' E 036°29'3 4.9
2017-Sep-24 10:59N 45°15' E 036°29'2 4.8
2017-Sep-24 10:30N 45°13' E 036°30'1 0.5
2017-Sep-24 08:22N 45°12' E 036°31'  

Dump ship's entire track history